sensor_id;sensor_type;location;lat;lon;timestamp;pressure;altitude;pressure_sealevel;temperature
70415;BMP280;57837;52.064;113.478;2024-02-16T00:02:20;91913.81;;;-15.48
70415;BMP280;57837;52.064;113.478;2024-02-16T00:05:26;91931.13;;;-15.40
70415;BMP280;57837;52.064;113.478;2024-02-16T00:08:30;91921.09;;;-15.22
70415;BMP280;57837;52.064;113.478;2024-02-16T00:11:33;91898.91;;;-15.19
70415;BMP280;57837;52.064;113.478;2024-02-16T00:14:37;91882.72;;;-15.04
70415;BMP280;57837;52.064;113.478;2024-02-16T00:17:40;91896.06;;;-14.96
70415;BMP280;57837;52.064;113.478;2024-02-16T00:20:44;91935.78;;;-14.84
70415;BMP280;57837;52.064;113.478;2024-02-16T00:23:49;91967.81;;;-14.58
70415;BMP280;57837;52.064;113.478;2024-02-16T00:26:53;91946.78;;;-14.49
70415;BMP280;57837;52.064;113.478;2024-02-16T00:29:57;91927.19;;;-14.41
70415;BMP280;57837;52.064;113.478;2024-02-16T00:33:01;91930.09;;;-14.39
70415;BMP280;57837;52.064;113.478;2024-02-16T00:36:05;91939.06;;;-14.47
70415;BMP280;57837;52.064;113.478;2024-02-16T00:39:09;91931.81;;;-14.64
70415;BMP280;57837;52.064;113.478;2024-02-16T00:42:13;91961.53;;;-14.77
70415;BMP280;57837;52.064;113.478;2024-02-16T00:45:17;91950.81;;;-14.68
70415;BMP280;57837;52.064;113.478;2024-02-16T00:48:20;91932.03;;;-14.45
70415;BMP280;57837;52.064;113.478;2024-02-16T00:51:49;91909.56;;;-14.49
70415;BMP280;57837;52.064;113.478;2024-02-16T00:54:54;91913.41;;;-14.63
70415;BMP280;57837;52.064;113.478;2024-02-16T00:57:58;91950.44;;;-14.46
70415;BMP280;57837;52.064;113.478;2024-02-16T01:01:04;91964.72;;;-14.19
70415;BMP280;57837;52.064;113.478;2024-02-16T01:04:07;91950.09;;;-13.99
70415;BMP280;57837;52.064;113.478;2024-02-16T01:07:12;91922.84;;;-13.96
70415;BMP280;57837;52.064;113.478;2024-02-16T01:10:16;91915.00;;;-13.98
70415;BMP280;57837;52.064;113.478;2024-02-16T01:13:20;91886.09;;;-13.90
70415;BMP280;57837;52.064;113.478;2024-02-16T01:16:23;91902.03;;;-13.91
70415;BMP280;57837;52.064;113.478;2024-02-16T01:19:27;91893.66;;;-13.87
70415;BMP280;57837;52.064;113.478;2024-02-16T01:22:31;91868.69;;;-13.78
70415;BMP280;57837;52.064;113.478;2024-02-16T01:25:34;91869.44;;;-13.90
70415;BMP280;57837;52.064;113.478;2024-02-16T01:28:38;91895.34;;;-14.03
70415;BMP280;57837;52.064;113.478;2024-02-16T01:31:41;91892.63;;;-13.85
70415;BMP280;57837;52.064;113.478;2024-02-16T01:34:45;91879.03;;;-13.76
70415;BMP280;57837;52.064;113.478;2024-02-16T01:37:49;91885.88;;;-13.73
70415;BMP280;57837;52.064;113.478;2024-02-16T01:40:52;91900.97;;;-13.66
70415;BMP280;57837;52.064;113.478;2024-02-16T01:43:56;91882.97;;;-13.35
70415;BMP280;57837;52.064;113.478;2024-02-16T01:46:59;91880.78;;;-13.08
70415;BMP280;57837;52.064;113.478;2024-02-16T01:50:05;91874.38;;;-12.78
70415;BMP280;57837;52.064;113.478;2024-02-16T01:53:11;91878.19;;;-12.68
70415;BMP280;57837;52.064;113.478;2024-02-16T01:56:15;91896.00;;;-12.66
70415;BMP280;57837;52.064;113.478;2024-02-16T01:59:19;91885.47;;;-12.59
70415;BMP280;57837;52.064;113.478;2024-02-16T02:02:22;91881.00;;;-12.69
70415;BMP280;57837;52.064;113.478;2024-02-16T02:05:26;91881.47;;;-12.64
70415;BMP280;57837;52.064;113.478;2024-02-16T02:08:30;91867.88;;;-12.35
70415;BMP280;57837;52.064;113.478;2024-02-16T02:11:35;91857.50;;;-12.02
70415;BMP280;57837;52.064;113.478;2024-02-16T02:14:38;91818.03;;;-11.19
70415;BMP280;57837;52.064;113.478;2024-02-16T02:17:42;91839.44;;;-10.72
70415;BMP280;57837;52.064;113.478;2024-02-16T02:20:46;91845.13;;;-10.94
70415;BMP280;57837;52.064;113.478;2024-02-16T02:23:50;91812.03;;;-11.37
70415;BMP280;57837;52.064;113.478;2024-02-16T02:26:54;91820.25;;;-11.56
70415;BMP280;57837;52.064;113.478;2024-02-16T02:29:59;91807.56;;;-11.70
70415;BMP280;57837;52.064;113.478;2024-02-16T02:33:02;91820.59;;;-10.92
70415;BMP280;57837;52.064;113.478;2024-02-16T02:36:07;91816.47;;;-9.98
70415;BMP280;57837;52.064;113.478;2024-02-16T02:39:11;91817.16;;;-9.31
70415;BMP280;57837;52.064;113.478;2024-02-16T02:42:16;91794.13;;;-9.03
70415;BMP280;57837;52.064;113.478;2024-02-16T02:45:20;91788.91;;;-9.31
70415;BMP280;57837;52.064;113.478;2024-02-16T02:48:25;91775.31;;;-9.30
70415;BMP280;57837;52.064;113.478;2024-02-16T02:51:29;91790.66;;;-8.84
70415;BMP280;57837;52.064;113.478;2024-02-16T02:54:33;91780.16;;;-8.42
70415;BMP280;57837;52.064;113.478;2024-02-16T02:57:37;91765.06;;;-8.59
70415;BMP280;57837;52.064;113.478;2024-02-16T03:00:41;91750.63;;;-8.80
70415;BMP280;57837;52.064;113.478;2024-02-16T03:03:45;91740.38;;;-8.54
70415;BMP280;57837;52.064;113.478;2024-02-16T03:06:53;91744.72;;;-8.40
70415;BMP280;57837;52.064;113.478;2024-02-16T03:09:57;91772.66;;;-8.38
70415;BMP280;57837;52.064;113.478;2024-02-16T03:13:01;91737.63;;;-8.27
70415;BMP280;57837;52.064;113.478;2024-02-16T03:16:06;91710.41;;;-8.22
70415;BMP280;57837;52.064;113.478;2024-02-16T03:19:10;91710.97;;;-8.64
70415;BMP280;57837;52.064;113.478;2024-02-16T03:22:14;91715.56;;;-8.77
70415;BMP280;57837;52.064;113.478;2024-02-16T03:25:18;91720.56;;;-8.80
70415;BMP280;57837;52.064;113.478;2024-02-16T03:28:23;91725.97;;;-8.71
70415;BMP280;57837;52.064;113.478;2024-02-16T03:31:27;91718.00;;;-8.91
70415;BMP280;57837;52.064;113.478;2024-02-16T03:34:31;91713.53;;;-9.19
70415;BMP280;57837;52.064;113.478;2024-02-16T03:37:35;91704.84;;;-9.36
70415;BMP280;57837;52.064;113.478;2024-02-16T03:40:39;91684.94;;;-9.14
70415;BMP280;57837;52.064;113.478;2024-02-16T03:43:43;91675.44;;;-8.87
70415;BMP280;57837;52.064;113.478;2024-02-16T03:46:47;91694.94;;;-8.35
70415;BMP280;57837;52.064;113.478;2024-02-16T03:49:51;91715.78;;;-8.16
70415;BMP280;57837;52.064;113.478;2024-02-16T03:52:55;91717.84;;;-8.50
70415;BMP280;57837;52.064;113.478;2024-02-16T03:55:59;91710.69;;;-8.41
70415;BMP280;57837;52.064;113.478;2024-02-16T03:59:03;91696.03;;;-8.43
70415;BMP280;57837;52.064;113.478;2024-02-16T04:02:12;91700.00;;;-8.31
70415;BMP280;57837;52.064;113.478;2024-02-16T04:05:19;91708.91;;;-8.41
70415;BMP280;57837;52.064;113.478;2024-02-16T04:08:23;91697.50;;;-8.31
70415;BMP280;57837;52.064;113.478;2024-02-16T04:11:26;91720.06;;;-8.13
70415;BMP280;57837;52.064;113.478;2024-02-16T04:14:33;91723.34;;;-7.91
70415;BMP280;57837;52.064;113.478;2024-02-16T04:17:37;91707.25;;;-7.94
70415;BMP280;57837;52.064;113.478;2024-02-16T04:20:40;91700.78;;;-7.95
70415;BMP280;57837;52.064;113.478;2024-02-16T04:23:44;91689.66;;;-8.08
70415;BMP280;57837;52.064;113.478;2024-02-16T04:26:47;91680.38;;;-7.86
70415;BMP280;57837;52.064;113.478;2024-02-16T04:29:51;91669.28;;;-7.67
70415;BMP280;57837;52.064;113.478;2024-02-16T04:32:55;91660.66;;;-7.63
70415;BMP280;57837;52.064;113.478;2024-02-16T04:35:59;91655.97;;;-7.47
70415;BMP280;57837;52.064;113.478;2024-02-16T04:39:02;91655.63;;;-7.59
70415;BMP280;57837;52.064;113.478;2024-02-16T04:42:06;91649.53;;;-8.01
70415;BMP280;57837;52.064;113.478;2024-02-16T04:45:13;91666.00;;;-8.11
70415;BMP280;57837;52.064;113.478;2024-02-16T04:48:17;91667.41;;;-8.17
70415;BMP280;57837;52.064;113.478;2024-02-16T04:51:21;91670.59;;;-8.34
70415;BMP280;57837;52.064;113.478;2024-02-16T04:54:25;91659.13;;;-8.42
70415;BMP280;57837;52.064;113.478;2024-02-16T04:57:29;91664.81;;;-8.59
70415;BMP280;57837;52.064;113.478;2024-02-16T05:00:33;91666.66;;;-8.39
70415;BMP280;57837;52.064;113.478;2024-02-16T05:03:37;91652.72;;;-8.29
70415;BMP280;57837;52.064;113.478;2024-02-16T05:06:44;91657.00;;;-8.33
70415;BMP280;57837;52.064;113.478;2024-02-16T05:09:51;91651.28;;;-8.19
70415;BMP280;57837;52.064;113.478;2024-02-16T05:12:58;91645.59;;;-8.06
70415;BMP280;57837;52.064;113.478;2024-02-16T05:16:02;91657.41;;;-8.10
70415;BMP280;57837;52.064;113.478;2024-02-16T05:19:11;91633.03;;;-8.06
70415;BMP280;57837;52.064;113.478;2024-02-16T05:22:15;91612.28;;;-7.99
70415;BMP280;57837;52.064;113.478;2024-02-16T05:25:21;91618.00;;;-8.09
70415;BMP280;57837;52.064;113.478;2024-02-16T05:28:25;91603.69;;;-7.98
70415;BMP280;57837;52.064;113.478;2024-02-16T05:31:29;91637.00;;;-7.83
70415;BMP280;57837;52.064;113.478;2024-02-16T05:34:34;91660.31;;;-7.72
70415;BMP280;57837;52.064;113.478;2024-02-16T05:37:46;91659.25;;;-7.67
70415;BMP280;57837;52.064;113.478;2024-02-16T05:40:56;91624.81;;;-7.70
70415;BMP280;57837;52.064;113.478;2024-02-16T05:44:00;91620.81;;;-7.47
70415;BMP280;57837;52.064;113.478;2024-02-16T05:47:03;91609.34;;;-7.40
70415;BMP280;57837;52.064;113.478;2024-02-16T05:50:08;91594.28;;;-7.40
70415;BMP280;57837;52.064;113.478;2024-02-16T05:53:12;91604.34;;;-7.51
70415;BMP280;57837;52.064;113.478;2024-02-16T05:56:16;91612.59;;;-7.79
70415;BMP280;57837;52.064;113.478;2024-02-16T05:59:20;91615.50;;;-7.84
70415;BMP280;57837;52.064;113.478;2024-02-16T06:02:25;91591.81;;;-7.80
70415;BMP280;57837;52.064;113.478;2024-02-16T06:05:28;91553.81;;;-7.71
70415;BMP280;57837;52.064;113.478;2024-02-16T06:08:31;91562.03;;;-7.56
70415;BMP280;57837;52.064;113.478;2024-02-16T06:11:38;91562.03;;;-7.63
70415;BMP280;57837;52.064;113.478;2024-02-16T06:14:42;91574.94;;;-7.54
70415;BMP280;57837;52.064;113.478;2024-02-16T06:17:48;91592.88;;;-7.66
70415;BMP280;57837;52.064;113.478;2024-02-16T06:20:53;91581.03;;;-7.52
70415;BMP280;57837;52.064;113.478;2024-02-16T06:23:57;91585.28;;;-7.38
70415;BMP280;57837;52.064;113.478;2024-02-16T06:27:01;91578.09;;;-7.18
70415;BMP280;57837;52.064;113.478;2024-02-16T06:30:05;91575.56;;;-7.18
70415;BMP280;57837;52.064;113.478;2024-02-16T06:33:09;91575.22;;;-7.24
70415;BMP280;57837;52.064;113.478;2024-02-16T06:36:13;91589.63;;;-7.49
70415;BMP280;57837;52.064;113.478;2024-02-16T06:39:17;91594.66;;;-7.46
70415;BMP280;57837;52.064;113.478;2024-02-16T06:42:21;91584.97;;;-7.40
70415;BMP280;57837;52.064;113.478;2024-02-16T06:45:24;91583.53;;;-7.48
70415;BMP280;57837;52.064;113.478;2024-02-16T06:48:29;91590.03;;;-7.68
70415;BMP280;57837;52.064;113.478;2024-02-16T06:51:33;91565.66;;;-7.72
70415;BMP280;57837;52.064;113.478;2024-02-16T06:54:37;91559.56;;;-7.92
70415;BMP280;57837;52.064;113.478;2024-02-16T06:57:41;91557.81;;;-8.02
70415;BMP280;57837;52.064;113.478;2024-02-16T07:00:44;91552.44;;;-8.08
70415;BMP280;57837;52.064;113.478;2024-02-16T07:03:49;91557.81;;;-7.98
70415;BMP280;57837;52.064;113.478;2024-02-16T07:06:54;91547.41;;;-7.86
70415;BMP280;57837;52.064;113.478;2024-02-16T07:09:58;91553.13;;;-7.79
70415;BMP280;57837;52.064;113.478;2024-02-16T07:13:02;91541.28;;;-7.75
70415;BMP280;57837;52.064;113.478;2024-02-16T07:16:06;91548.78;;;-7.60
70415;BMP280;57837;52.064;113.478;2024-02-16T07:19:10;91547.72;;;-7.70
70415;BMP280;57837;52.064;113.478;2024-02-16T07:22:14;91559.53;;;-7.63
70415;BMP280;57837;52.064;113.478;2024-02-16T07:25:18;91548.81;;;-7.67
70415;BMP280;57837;52.064;113.478;2024-02-16T07:28:24;91557.75;;;-7.63
70415;BMP280;57837;52.064;113.478;2024-02-16T07:31:33;91557.06;;;-7.67
70415;BMP280;57837;52.064;113.478;2024-02-16T07:34:38;91564.94;;;-7.68
70415;BMP280;57837;52.064;113.478;2024-02-16T07:37:42;91578.53;;;-7.55
70415;BMP280;57837;52.064;113.478;2024-02-16T07:40:47;91575.63;;;-7.47
70415;BMP280;57837;52.064;113.478;2024-02-16T07:43:50;91582.13;;;-7.60
70415;BMP280;57837;52.064;113.478;2024-02-16T07:46:55;91580.00;;;-7.83
70415;BMP280;57837;52.064;113.478;2024-02-16T07:49:59;91576.09;;;-7.98
70415;BMP280;57837;52.064;113.478;2024-02-16T07:53:03;91585.41;;;-7.95
70415;BMP280;57837;52.064;113.478;2024-02-16T07:56:07;91588.59;;;-7.84
70415;BMP280;57837;52.064;113.478;2024-02-16T07:59:11;91589.66;;;-7.92
70415;BMP280;57837;52.064;113.478;2024-02-16T08:02:15;91602.97;;;-7.98
70415;BMP280;57837;52.064;113.478;2024-02-16T08:05:21;91611.53;;;-8.14
70415;BMP280;57837;52.064;113.478;2024-02-16T08:08:25;91616.59;;;-7.99
70415;BMP280;57837;52.064;113.478;2024-02-16T08:11:29;91626.25;;;-7.98
70415;BMP280;57837;52.064;113.478;2024-02-16T08:14:35;91631.63;;;-8.10
70415;BMP280;57837;52.064;113.478;2024-02-16T08:17:39;91637.34;;;-8.03
70415;BMP280;57837;52.064;113.478;2024-02-16T08:20:43;91643.09;;;-8.09
70415;BMP280;57837;52.064;113.478;2024-02-16T08:23:47;91643.06;;;-8.30
70415;BMP280;57837;52.064;113.478;2024-02-16T08:26:51;91641.59;;;-8.42
70415;BMP280;57837;52.064;113.478;2024-02-16T08:29:55;91635.06;;;-8.68
70415;BMP280;57837;52.064;113.478;2024-02-16T08:32:58;91636.13;;;-8.69
70415;BMP280;57837;52.064;113.478;2024-02-16T08:36:04;91630.34;;;-8.84
70415;BMP280;57837;52.064;113.478;2024-02-16T08:39:11;91629.31;;;-8.72
70415;BMP280;57837;52.064;113.478;2024-02-16T08:42:15;91629.69;;;-8.70
70415;BMP280;57837;52.064;113.478;2024-02-16T08:45:19;91615.78;;;-8.57
70415;BMP280;57837;52.064;113.478;2024-02-16T08:48:26;91620.06;;;-8.57
70415;BMP280;57837;52.064;113.478;2024-02-16T08:51:32;91614.34;;;-8.61
70415;BMP280;57837;52.064;113.478;2024-02-16T08:54:36;91608.22;;;-8.68
70415;BMP280;57837;52.064;113.478;2024-02-16T08:57:40;91616.84;;;-8.58
70415;BMP280;57837;52.064;113.478;2024-02-16T09:00:45;91608.63;;;-8.48
70415;BMP280;57837;52.064;113.478;2024-02-16T09:03:49;91606.16;;;-8.37
70415;BMP280;57837;52.064;113.478;2024-02-16T09:06:55;91630.09;;;-8.54
70415;BMP280;57837;52.064;113.478;2024-02-16T09:09:59;91620.78;;;-8.60
70415;BMP280;57837;52.064;113.478;2024-02-16T09:13:02;91618.59;;;-8.76
70415;BMP280;57837;52.064;113.478;2024-02-16T09:16:06;91613.59;;;-8.73
70415;BMP280;57837;52.064;113.478;2024-02-16T09:19:11;91594.56;;;-8.84
70415;BMP280;57837;52.064;113.478;2024-02-16T09:22:15;91579.84;;;-8.97
70415;BMP280;57837;52.064;113.478;2024-02-16T09:25:20;91609.19;;;-8.94
70415;BMP280;57837;52.064;113.478;2024-02-16T09:28:25;91629.91;;;-9.11
70415;BMP280;57837;52.064;113.478;2024-02-16T09:31:32;91588.59;;;-9.42
70415;BMP280;57837;52.064;113.478;2024-02-16T09:34:36;91610.31;;;-9.60
70415;BMP280;57837;52.064;113.478;2024-02-16T09:37:43;91601.00;;;-9.67
70415;BMP280;57837;52.064;113.478;2024-02-16T09:40:46;91586.34;;;-9.65
70415;BMP280;57837;52.064;113.478;2024-02-16T09:43:50;91581.91;;;-9.89
70415;BMP280;57837;52.064;113.478;2024-02-16T09:46:59;91587.88;;;-10.01
70415;BMP280;57837;52.064;113.478;2024-02-16T09:50:05;91584.97;;;-10.06
70415;BMP280;57837;52.064;113.478;2024-02-16T09:53:09;91569.91;;;-10.17
70415;BMP280;57837;52.064;113.478;2024-02-16T09:56:14;91596.19;;;-10.30
70415;BMP280;57837;52.064;113.478;2024-02-16T09:59:18;91602.88;;;-10.38
70415;BMP280;57837;52.064;113.478;2024-02-16T10:02:22;91615.66;;;-10.50
70415;BMP280;57837;52.064;113.478;2024-02-16T10:05:26;91612.38;;;-10.54
70415;BMP280;57837;52.064;113.478;2024-02-16T10:08:30;91634.53;;;-10.53
70415;BMP280;57837;52.064;113.478;2024-02-16T10:11:34;91655.78;;;-10.66
70415;BMP280;57837;52.064;113.478;2024-02-16T10:14:39;91634.75;;;-10.68
70415;BMP280;57837;52.064;113.478;2024-02-16T10:17:44;91605.50;;;-10.68
70415;BMP280;57837;52.064;113.478;2024-02-16T10:20:48;91600.31;;;-10.82
70415;BMP280;57837;52.064;113.478;2024-02-16T10:24:06;91610.28;;;-10.86
70415;BMP280;57837;52.064;113.478;2024-02-16T10:27:37;91636.25;;;-10.90
70415;BMP280;57837;52.064;113.478;2024-02-16T10:30:41;91686.00;;;-11.05
70415;BMP280;57837;52.064;113.478;2024-02-16T10:33:49;91737.56;;;-11.12
70415;BMP280;57837;52.064;113.478;2024-02-16T10:36:54;91746.06;;;-11.17
70415;BMP280;57837;52.064;113.478;2024-02-16T10:39:59;91728.41;;;-11.31
70415;BMP280;57837;52.064;113.478;2024-02-16T10:43:04;91746.09;;;-11.40
70415;BMP280;57837;52.064;113.478;2024-02-16T10:46:12;91765.97;;;-11.43
70415;BMP280;57837;52.064;113.478;2024-02-16T10:49:17;91746.81;;;-11.39
70415;BMP280;57837;52.064;113.478;2024-02-16T10:52:23;91728.06;;;-11.30
70415;BMP280;57837;52.064;113.478;2024-02-16T10:55:28;91706.94;;;-11.36
70415;BMP280;57837;52.064;113.478;2024-02-16T10:58:33;91707.03;;;-11.55
70415;BMP280;57837;52.064;113.478;2024-02-16T11:01:41;91709.91;;;-11.72
70415;BMP280;57837;52.064;113.478;2024-02-16T11:04:46;91694.03;;;-11.87
70415;BMP280;57837;52.064;113.478;2024-02-16T11:08:18;91698.25;;;-11.91
70415;BMP280;57837;52.064;113.478;2024-02-16T11:11:25;91689.44;;;-12.04
70415;BMP280;57837;52.064;113.478;2024-02-16T11:14:39;91686.00;;;-12.19
70415;BMP280;57837;52.064;113.478;2024-02-16T11:17:44;91672.19;;;-12.36
70415;BMP280;57837;52.064;113.478;2024-02-16T11:20:49;91666.53;;;-12.52
70415;BMP280;57837;52.064;113.478;2024-02-16T11:24:06;91661.91;;;-12.54
70415;BMP280;57837;52.064;113.478;2024-02-16T11:27:12;91659.31;;;-12.57
70415;BMP280;57837;52.064;113.478;2024-02-16T11:30:19;91660.59;;;-12.67
70415;BMP280;57837;52.064;113.478;2024-02-16T11:33:23;91672.22;;;-12.71
70415;BMP280;57837;52.064;113.478;2024-02-16T11:36:27;91677.63;;;-12.69
70415;BMP280;57837;52.064;113.478;2024-02-16T11:39:30;91672.81;;;-12.78
70415;BMP280;57837;52.064;113.478;2024-02-16T11:43:00;91687.09;;;-12.75
70415;BMP280;57837;52.064;113.478;2024-02-16T11:46:16;91687.44;;;-12.76
70415;BMP280;57837;52.064;113.478;2024-02-16T11:49:21;91691.59;;;-12.80
70415;BMP280;57837;52.064;113.478;2024-02-16T11:52:25;91700.84;;;-12.81
70415;BMP280;57837;52.064;113.478;2024-02-16T11:55:29;91705.25;;;-12.74
70415;BMP280;57837;52.064;113.478;2024-02-16T11:58:32;91680.56;;;-12.63
70415;BMP280;57837;52.064;113.478;2024-02-16T12:01:36;91665.44;;;-12.55
70415;BMP280;57837;52.064;113.478;2024-02-16T12:04:39;91676.25;;;-12.66
70415;BMP280;57837;52.064;113.478;2024-02-16T12:07:57;91687.41;;;-12.60
70415;BMP280;57837;52.064;113.478;2024-02-16T12:11:02;91664.28;;;-12.61
70415;BMP280;57837;52.064;113.478;2024-02-16T12:14:06;91667.97;;;-12.70
70415;BMP280;57837;52.064;113.478;2024-02-16T12:17:09;91673.34;;;-12.88
70415;BMP280;57837;52.064;113.478;2024-02-16T12:20:14;91692.81;;;-12.74
70415;BMP280;57837;52.064;113.478;2024-02-16T12:23:18;91665.19;;;-12.69
70415;BMP280;57837;52.064;113.478;2024-02-16T12:26:21;91673.88;;;-12.59
70415;BMP280;57837;52.064;113.478;2024-02-16T12:29:25;91660.31;;;-12.42
70415;BMP280;57837;52.064;113.478;2024-02-16T12:32:29;91654.22;;;-12.45
70415;BMP280;57837;52.064;113.478;2024-02-16T12:35:33;91656.13;;;-12.38
70415;BMP280;57837;52.064;113.478;2024-02-16T12:38:38;91667.91;;;-12.35
70415;BMP280;57837;52.064;113.478;2024-02-16T12:41:42;91662.81;;;-12.42
70415;BMP280;57837;52.064;113.478;2024-02-16T12:44:47;91662.63;;;-12.53
70415;BMP280;57837;52.064;113.478;2024-02-16T12:47:51;91648.72;;;-12.54
70415;BMP280;57837;52.064;113.478;2024-02-16T12:50:55;91652.94;;;-12.39
70415;BMP280;57837;52.064;113.478;2024-02-16T12:54:00;91657.97;;;-12.35
70415;BMP280;57837;52.064;113.478;2024-02-16T12:57:12;91645.56;;;-12.32
70415;BMP280;57837;52.064;113.478;2024-02-16T13:00:17;91641.66;;;-12.33
70415;BMP280;57837;52.064;113.478;2024-02-16T13:03:22;91640.22;;;-12.34
70415;BMP280;57837;52.064;113.478;2024-02-16T13:06:26;91645.13;;;-12.37
70415;BMP280;57837;52.064;113.478;2024-02-16T13:09:31;91640.25;;;-12.50
70415;BMP280;57837;52.064;113.478;2024-02-16T13:12:35;91638.06;;;-12.55
70415;BMP280;57837;52.064;113.478;2024-02-16T13:15:40;91644.84;;;-12.52
70415;BMP280;57837;52.064;113.478;2024-02-16T13:18:44;91661.22;;;-12.51
70415;BMP280;57837;52.064;113.478;2024-02-16T13:21:49;91659.09;;;-12.33
70415;BMP280;57837;52.064;113.478;2024-02-16T13:24:53;91689.31;;;-11.92
70415;BMP280;57837;52.064;113.478;2024-02-16T13:27:57;91708.34;;;-11.61
70415;BMP280;57837;52.064;113.478;2024-02-16T13:31:02;91688.44;;;-11.57
70415;BMP280;57837;52.064;113.478;2024-02-16T13:34:06;91693.31;;;-11.65
70415;BMP280;57837;52.064;113.478;2024-02-16T13:37:10;91708.13;;;-11.52
70415;BMP280;57837;52.064;113.478;2024-02-16T13:40:14;91730.81;;;-11.35
70415;BMP280;57837;52.064;113.478;2024-02-16T13:43:18;91721.78;;;-11.43
70415;BMP280;57837;52.064;113.478;2024-02-16T13:46:22;91725.38;;;-11.63
70415;BMP280;57837;52.064;113.478;2024-02-16T13:49:28;91747.78;;;-11.67
70415;BMP280;57837;52.064;113.478;2024-02-16T13:52:32;91747.56;;;-11.58
70415;BMP280;57837;52.064;113.478;2024-02-16T13:55:38;91767.19;;;-11.56
70415;BMP280;57837;52.064;113.478;2024-02-16T13:58:42;91759.63;;;-11.83
70415;BMP280;57837;52.064;113.478;2024-02-16T14:01:49;91766.75;;;-11.81
70415;BMP280;57837;52.064;113.478;2024-02-16T14:04:53;91764.97;;;-11.62
70415;BMP280;57837;52.064;113.478;2024-02-16T14:08:00;91760.88;;;-11.50
70415;BMP280;57837;52.064;113.478;2024-02-16T14:11:06;91739.50;;;-11.51
70415;BMP280;57837;52.064;113.478;2024-02-16T14:14:12;91726.88;;;-11.81
70415;BMP280;57837;52.064;113.478;2024-02-16T14:17:33;91744.41;;;-11.97
70415;BMP280;57837;52.064;113.478;2024-02-16T14:21:01;91763.88;;;-11.83
70415;BMP280;57837;52.064;113.478;2024-02-16T14:24:05;91764.53;;;-11.87
70415;BMP280;57837;52.064;113.478;2024-02-16T14:27:12;91788.75;;;-12.06
70415;BMP280;57837;52.064;113.478;2024-02-16T14:30:16;91792.94;;;-12.10
70415;BMP280;57837;52.064;113.478;2024-02-16T14:33:19;91811.34;;;-11.96
70415;BMP280;57837;52.064;113.478;2024-02-16T14:36:34;91822.75;;;-11.95
70415;BMP280;57837;52.064;113.478;2024-02-16T14:39:38;91820.44;;;-12.03
70415;BMP280;57837;52.064;113.478;2024-02-16T14:42:42;91833.59;;;-12.22
70415;BMP280;57837;52.064;113.478;2024-02-16T14:45:46;91844.03;;;-12.17
70415;BMP280;57837;52.064;113.478;2024-02-16T14:48:50;91836.09;;;-12.22
70415;BMP280;57837;52.064;113.478;2024-02-16T14:51:56;91826.91;;;-12.37
70415;BMP280;57837;52.064;113.478;2024-02-16T14:55:00;91824.50;;;-12.34
70415;BMP280;57837;52.064;113.478;2024-02-16T14:58:04;91824.34;;;-12.06
70415;BMP280;57837;52.064;113.478;2024-02-16T15:01:07;91820.66;;;-11.93
70415;BMP280;57837;52.064;113.478;2024-02-16T15:04:12;91821.44;;;-12.08
70415;BMP280;57837;52.064;113.478;2024-02-16T15:07:17;91816.06;;;-12.10
70415;BMP280;57837;52.064;113.478;2024-02-16T15:10:21;91823.22;;;-12.08
70415;BMP280;57837;52.064;113.478;2024-02-16T15:13:24;91811.28;;;-12.19
70415;BMP280;57837;52.064;113.478;2024-02-16T15:16:30;91807.06;;;-12.34
70415;BMP280;57837;52.064;113.478;2024-02-16T15:19:34;91809.25;;;-12.13
70415;BMP280;57837;52.064;113.478;2024-02-16T15:22:37;91810.69;;;-12.12
70415;BMP280;57837;52.064;113.478;2024-02-16T15:25:54;91805.50;;;-12.03
70415;BMP280;57837;52.064;113.478;2024-02-16T15:28:57;91801.22;;;-12.06
70415;BMP280;57837;52.064;113.478;2024-02-16T15:32:04;91803.84;;;-12.15
70415;BMP280;57837;52.064;113.478;2024-02-16T15:35:07;91807.25;;;-12.23
70415;BMP280;57837;52.064;113.478;2024-02-16T15:38:11;91818.00;;;-12.38
70415;BMP280;57837;52.064;113.478;2024-02-16T15:41:14;91811.81;;;-12.45
70415;BMP280;57837;52.064;113.478;2024-02-16T15:44:19;91813.03;;;-12.54
70415;BMP280;57837;52.064;113.478;2024-02-16T15:47:23;91803.78;;;-12.54
70415;BMP280;57837;52.064;113.478;2024-02-16T15:50:26;91799.88;;;-12.55
70415;BMP280;57837;52.064;113.478;2024-02-16T15:53:32;91805.94;;;-12.52
70415;BMP280;57837;52.064;113.478;2024-02-16T15:56:37;91821.53;;;-12.39
70415;BMP280;57837;52.064;113.478;2024-02-16T15:59:41;91835.19;;;-12.33
70415;BMP280;57837;52.064;113.478;2024-02-16T16:02:44;91834.09;;;-12.32
70415;BMP280;57837;52.064;113.478;2024-02-16T16:05:48;91825.88;;;-12.17
70415;BMP280;57837;52.064;113.478;2024-02-16T16:08:52;91812.13;;;-12.11
70415;BMP280;57837;52.064;113.478;2024-02-16T16:11:57;91822.19;;;-12.23
70415;BMP280;57837;52.064;113.478;2024-02-16T16:15:02;91838.59;;;-12.06
70415;BMP280;57837;52.064;113.478;2024-02-16T16:18:06;91838.06;;;-11.77
70415;BMP280;57837;52.064;113.478;2024-02-16T16:21:10;91850.84;;;-11.59
70415;BMP280;57837;52.064;113.478;2024-02-16T16:24:14;91877.41;;;-11.47
70415;BMP280;57837;52.064;113.478;2024-02-16T16:27:20;91881.75;;;-11.44
70415;BMP280;57837;52.064;113.478;2024-02-16T16:30:24;91882.88;;;-11.61
70415;BMP280;57837;52.064;113.478;2024-02-16T16:33:29;91886.41;;;-11.81
70415;BMP280;57837;52.064;113.478;2024-02-16T16:36:33;91908.31;;;-11.71
70415;BMP280;57837;52.064;113.478;2024-02-16T16:39:38;91908.00;;;-11.70
70415;BMP280;57837;52.064;113.478;2024-02-16T16:42:42;91898.31;;;-11.91
70415;BMP280;57837;52.064;113.478;2024-02-16T16:45:47;91907.13;;;-12.12
70415;BMP280;57837;52.064;113.478;2024-02-16T16:48:50;91914.38;;;-12.39
70415;BMP280;57837;52.064;113.478;2024-02-16T16:51:54;91914.00;;;-12.41
70415;BMP280;57837;52.064;113.478;2024-02-16T16:54:59;91928.75;;;-12.17
70415;BMP280;57837;52.064;113.478;2024-02-16T16:58:04;91924.81;;;-12.18
70415;BMP280;57837;52.064;113.478;2024-02-16T17:01:08;91929.72;;;-12.37
70415;BMP280;57837;52.064;113.478;2024-02-16T17:04:12;91945.63;;;-12.41
70415;BMP280;57837;52.064;113.478;2024-02-16T17:07:16;91939.56;;;-12.56